Time;durP1;ratioP1;P1;durP2;ratioP2;P2;SDS_P1;SDS_P2;PMS_P1;PMS_P2;Temp;Humidity;BMP_temperature;BMP_pressure;BME280_temperature;BME280_humidity;BME280_pressure;Samples;Min_cycle;Max_cycle;Signal;HPM_P1;HPM_P2
2022/04/09 00:00:24;;;;;;;5.68;1.40;;;;;;;;;;4917347;29;20119;-63
2022/04/09 00:02:50;;;;;;;8.27;1.30;;;;;;;;;;4917324;29;20054;-63
2022/04/09 00:05:16;;;;;;;5.25;1.77;;;;;;;;;;4917537;29;20047;-63
2022/04/09 00:07:43;;;;;;;10.52;1.60;;;;;;;;;;4917129;29;20106;-63
2022/04/09 00:10:10;;;;;;;5.10;1.40;;;;;;;;;;4917463;29;20119;-63
2022/04/09 00:12:37;;;;;;;7.35;1.60;;;;;;;;;;4917354;29;20047;-63
2022/04/09 00:15:04;;;;;;;18.25;4.13;;;;;;;;;;4917067;29;20122;-63
2022/04/09 00:17:36;;;;;;;6.90;1.60;;;;;;;;;;4917934;29;20039;-63
2022/04/09 00:20:02;;;;;;;8.93;2.10;;;;;;;;;;4917632;29;20149;-63
2022/04/09 00:22:28;;;;;;;10.77;2.17;;;;;;;;;;4927205;29;20054;-63
2022/04/09 00:24:54;;;;;;;5.10;1.60;;;;;;;;;;4919352;29;20047;-63
2022/04/09 00:27:20;;;;;;;3.78;1.75;;;;;;;;;;4917133;29;20111;-63
2022/04/09 00:29:46;;;;;;;5.00;1.90;;;;;;;;;;4917428;29;20036;-63
2022/04/09 00:32:13;;;;;;;9.82;1.90;;;;;;;;;;4917045;29;20032;-63
2022/04/09 00:34:39;;;;;;;6.63;1.70;;;;;;;;;;4915584;29;20036;-63
2022/04/09 00:37:05;;;;;;;10.90;2.47;;;;;;;;;;4916814;29;20029;-63
2022/04/09 00:39:31;;;;;;;5.93;1.30;;;;;;;;;;4925880;29;20582;-63
2022/04/09 00:41:57;;;;;;;8.85;2.08;;;;;;;;;;4916447;29;20436;-63
2022/04/09 00:44:24;;;;;;;9.85;1.70;;;;;;;;;;4916518;29;20036;-63
2022/04/09 00:46:50;;;;;;;7.10;1.60;;;;;;;;;;4931581;29;20444;-63
2022/04/09 00:49:16;;;;;;;6.93;1.35;;;;;;;;;;4916778;29;20048;-63
2022/04/09 00:51:44;;;;;;;6.95;1.50;;;;;;;;;;4920891;29;20027;-63
2022/04/09 00:54:13;;;;;;;3.50;1.30;;;;;;;;;;4915361;29;20029;-63
2022/04/09 00:56:40;;;;;;;5.32;1.42;;;;;;;;;;4916409;29;20059;-63
2022/04/09 00:59:10;;;;;;;5.85;1.58;;;;;;;;;;4914942;29;20519;-63
2022/04/09 01:01:39;;;;;;;4.70;1.40;;;;;;;;;;4915756;29;20035;-63
2022/04/09 01:04:06;;;;;;;10.15;1.27;;;;;;;;;;4915986;29;20028;-63
2022/04/09 01:06:33;;;;;;;4.15;1.30;;;;;;;;;;4931095;29;20456;-63
2022/04/09 01:09:00;;;;;;;9.70;1.27;;;;;;;;;;4915738;29;20548;-63
2022/04/09 01:11:26;;;;;;;8.57;1.60;;;;;;;;;;4930721;29;20040;-63
2022/04/09 01:13:52;;;;;;;14.75;1.50;;;;;;;;;;4914764;29;20031;-63
2022/04/09 01:16:18;;;;;;;7.85;2.20;;;;;;;;;;4914913;29;20104;-63
2022/04/09 01:18:45;;;;;;;8.18;1.63;;;;;;;;;;4903190;29;20023;-63
2022/04/09 01:21:13;;;;;;;4.88;1.20;;;;;;;;;;4921006;29;20028;-63
2022/04/09 01:23:39;;;;;;;6.93;2.28;;;;;;;;;;4914914;29;20560;-63
2022/04/09 01:26:06;;;;;;;7.65;2.42;;;;;;;;;;4933564;29;20392;-63
2022/04/09 01:28:35;;;;;;;6.65;1.85;;;;;;;;;;4914740;29;20040;-63
2022/04/09 01:31:01;;;;;;;2.78;1.63;;;;;;;;;;4930232;29;20028;-63
2022/04/09 01:33:27;;;;;;;1.52;0.88;;;;;;;;;;4899572;29;20420;-63
2022/04/09 01:35:53;;;;;;;5.35;1.30;;;;;;;;;;4916083;29;20413;-63
2022/04/09 01:38:20;;;;;;;3.17;0.90;;;;;;;;;;4930326;29;20039;-63
2022/04/09 01:40:47;;;;;;;1.42;0.57;;;;;;;;;;4920224;29;20032;-63
2022/04/09 01:43:13;;;;;;;5.20;1.13;;;;;;;;;;4918146;29;20444;-63
2022/04/09 01:45:40;;;;;;;3.63;1.40;;;;;;;;;;4914492;29;20032;-63
2022/04/09 01:48:14;;;;;;;3.20;1.10;;;;;;;;;;4914578;29;20036;-63
2022/04/09 01:50:40;;;;;;;5.93;1.08;;;;;;;;;;4925793;29;20164;-63
2022/04/09 01:53:07;;;;;;;5.43;1.08;;;;;;;;;;4928870;29;20047;-63
2022/04/09 01:55:33;;;;;;;3.28;1.02;;;;;;;;;;4921036;29;20448;-63
2022/04/09 01:58:01;;;;;;;4.78;1.00;;;;;;;;;;4914755;29;20025;-63
2022/04/09 02:00:32;;;;;;;7.40;1.05;;;;;;;;;;4898495;29;20420;-63
2022/04/09 02:03:00;;;;;;;5.97;1.30;;;;;;;;;;4915827;29;20559;-63
2022/04/09 02:05:26;;;;;;;4.88;1.30;;;;;;;;;;4915125;29;20042;-63
2022/04/09 02:07:54;;;;;;;3.78;0.95;;;;;;;;;;4929770;29;20040;-63
2022/04/09 02:10:21;;;;;;;3.50;1.10;;;;;;;;;;4929528;29;20388;-63
2022/04/09 02:12:48;;;;;;;9.80;1.73;;;;;;;;;;4914348;29;20437;-63
2022/04/09 02:15:15;;;;;;;4.85;1.13;;;;;;;;;;4929457;29;20036;-63
2022/04/09 02:17:42;;;;;;;8.35;1.10;;;;;;;;;;4898450;29;20028;-63
2022/04/09 02:20:10;;;;;;;2.50;1.08;;;;;;;;;;4897964;29;20111;-63
2022/04/09 02:22:38;;;;;;;17.98;3.15;;;;;;;;;;4913927;29;20412;-63
2022/04/09 02:25:05;;;;;;;10.48;1.65;;;;;;;;;;4902704;29;20092;-63
2022/04/09 02:27:31;;;;;;;11.10;1.80;;;;;;;;;;4911633;29;20044;-63
2022/04/09 02:29:57;;;;;;;9.48;1.42;;;;;;;;;;4912581;29;20036;-63
2022/04/09 02:32:24;;;;;;;3.70;1.30;;;;;;;;;;4932532;29;20087;-63
2022/04/09 02:34:53;;;;;;;7.07;1.60;;;;;;;;;;4903759;29;20032;-63
2022/04/09 02:37:20;;;;;;;9.52;1.77;;;;;;;;;;4936932;29;20059;-63
2022/04/09 02:39:47;;;;;;;8.32;1.08;;;;;;;;;;4934574;29;20093;-63
2022/04/09 02:42:14;;;;;;;7.82;1.35;;;;;;;;;;4934162;29;20068;-63
2022/04/09 02:44:41;;;;;;;5.60;1.30;;;;;;;;;;4934605;29;20035;-63
2022/04/09 02:47:07;;;;;;;5.47;1.30;;;;;;;;;;4919136;29;20028;-63
2022/04/09 02:49:34;;;;;;;11.82;1.30;;;;;;;;;;4918321;29;20036;-63
2022/04/09 02:52:01;;;;;;;8.85;1.75;;;;;;;;;;4901819;29;20036;-63
2022/04/09 02:54:27;;;;;;;11.32;1.40;;;;;;;;;;4917613;29;20464;-63
2022/04/09 02:56:54;;;;;;;6.88;1.42;;;;;;;;;;4934066;29;20064;-63
2022/04/09 02:59:27;;;;;;;5.28;1.67;;;;;;;;;;4933910;29;20031;-63
2022/04/09 03:01:53;;;;;;;9.23;1.30;;;;;;;;;;4919551;29;20024;-63
2022/04/09 03:04:19;;;;;;;5.47;2.35;;;;;;;;;;4932689;29;20417;-63
2022/04/09 03:06:46;;;;;;;4.70;1.17;;;;;;;;;;4918964;29;20032;-63
2022/04/09 03:09:14;;;;;;;7.22;1.80;;;;;;;;;;4933446;29;20444;-63
2022/04/09 03:11:40;;;;;;;6.68;1.17;;;;;;;;;;4919237;29;20040;-63
2022/04/09 03:14:06;;;;;;;6.22;1.48;;;;;;;;;;4921839;29;20412;-62
2022/04/09 03:16:33;;;;;;;8.85;2.00;;;;;;;;;;4936712;29;20558;-63
2022/04/09 03:19:00;;;;;;;4.68;1.10;;;;;;;;;;4937060;29;20043;-63
2022/04/09 03:21:27;;;;;;;6.53;1.42;;;;;;;;;;4942926;29;20044;-62
2022/04/09 03:23:53;;;;;;;13.52;1.77;;;;;;;;;;4918278;29;20104;-63
2022/04/09 03:26:20;;;;;;;2.60;1.10;;;;;;;;;;4920540;29;20083;-63
2022/04/09 03:28:53;;;;;;;8.82;1.52;;;;;;;;;;4929835;29;20032;-63
2022/04/09 03:31:20;;;;;;;10.80;1.30;;;;;;;;;;4917482;29;20488;-62
2022/04/09 03:33:47;;;;;;;7.75;1.40;;;;;;;;;;4918939;29;20024;-63
2022/04/09 03:36:19;;;;;;;7.27;1.40;;;;;;;;;;4918081;29;20445;-63
2022/04/09 03:38:45;;;;;;;4.35;1.30;;;;;;;;;;4917030;29;20032;-63
2022/04/09 03:41:12;;;;;;;4.53;1.27;;;;;;;;;;4917364;29;20050;-62
2022/04/09 03:43:51;;;;;;;6.18;1.60;;;;;;;;;;4942303;29;20036;-63
2022/04/09 03:46:19;;;;;;;7.65;1.40;;;;;;;;;;4936400;29;20066;-62
2022/04/09 03:48:46;;;;;;;6.90;1.30;;;;;;;;;;4909425;29;20024;-63
2022/04/09 03:51:14;;;;;;;4.93;1.80;;;;;;;;;;4937341;29;20048;-63
2022/04/09 03:53:42;;;;;;;6.45;1.40;;;;;;;;;;4919185;29;20027;-62
2022/04/09 03:56:10;;;;;;;9.23;1.50;;;;;;;;;;4924039;29;20110;-63
2022/04/09 03:58:43;;;;;;;7.93;1.23;;;;;;;;;;4921107;29;20060;-63
2022/04/09 04:01:13;;;;;;;8.60;1.80;;;;;;;;;;4932893;29;20034;-63
2022/04/09 04:03:40;;;;;;;7.65;1.40;;;;;;;;;;4932150;29;20481;-63
2022/04/09 04:06:08;;;;;;;8.45;1.80;;;;;;;;;;4914172;29;20025;-62
2022/04/09 04:08:35;;;;;;;4.50;1.25;;;;;;;;;;4901054;29;20047;-63
2022/04/09 04:11:02;;;;;;;6.47;1.50;;;;;;;;;;4940445;29;20034;-63
2022/04/09 04:13:33;;;;;;;6.70;1.48;;;;;;;;;;4918799;29;20043;-63
2022/04/09 04:16:03;;;;;;;5.45;1.40;;;;;;;;;;4932515;29;20024;-63
2022/04/09 04:18:30;;;;;;;4.00;1.33;;;;;;;;;;4932016;29;20429;-63
2022/04/09 04:20:59;;;;;;;4.47;1.15;;;;;;;;;;4932136;29;20032;-63
2022/04/09 04:23:25;;;;;;;3.22;1.33;;;;;;;;;;4916614;29;20059;-63
2022/04/09 04:25:54;;;;;;;7.93;1.92;;;;;;;;;;4916364;29;20032;-63
2022/04/09 04:28:22;;;;;;;6.03;1.30;;;;;;;;;;4912290;29;20118;-63
2022/04/09 04:30:48;;;;;;;4.47;1.80;;;;;;;;;;4916572;29;20067;-63
2022/04/09 04:33:14;;;;;;;6.35;1.35;;;;;;;;;;4931955;29;20131;-63
2022/04/09 04:35:46;;;;;;;3.92;1.23;;;;;;;;;;4916214;29;20071;-63
2022/04/09 04:38:12;;;;;;;10.63;2.30;;;;;;;;;;4916245;29;20028;-63
2022/04/09 04:40:41;;;;;;;9.45;1.50;;;;;;;;;;4930709;29;20426;-63
2022/04/09 04:43:09;;;;;;;5.00;1.38;;;;;;;;;;4916190;29;20058;-63
2022/04/09 04:45:36;;;;;;;4.32;1.27;;;;;;;;;;4919957;29;20488;-63
2022/04/09 04:48:07;;;;;;;2.92;1.60;;;;;;;;;;4915229;29;20123;-63
2022/04/09 04:50:37;;;;;;;5.97;1.95;;;;;;;;;;4915153;29;20071;-63
2022/04/09 04:53:06;;;;;;;6.20;1.30;;;;;;;;;;4935780;29;20042;-63
2022/04/09 04:55:37;;;;;;;8.45;1.50;;;;;;;;;;4921705;29;20464;-63
2022/04/09 04:58:03;;;;;;;4.43;1.67;;;;;;;;;;4915923;29;20060;-63
2022/04/09 05:00:36;;;;;;;6.87;1.40;;;;;;;;;;4919093;29;20028;-63
2022/04/09 05:03:06;;;;;;;9.82;1.60;;;;;;;;;;4916886;29;20036;-62
2022/04/09 05:05:38;;;;;;;6.35;1.35;;;;;;;;;;4927904;29;20036;-63
2022/04/09 05:08:06;;;;;;;1.73;1.10;;;;;;;;;;4915522;29;20115;-63
2022/04/09 05:10:32;;;;;;;5.03;1.20;;;;;;;;;;4927403;29;20039;-63
2022/04/09 05:13:02;;;;;;;6.18;1.10;;;;;;;;;;4930895;29;20483;-63
2022/04/09 05:15:30;;;;;;;4.10;1.42;;;;;;;;;;4923429;29;20705;-63
2022/04/09 05:17:57;;;;;;;6.03;1.27;;;;;;;;;;4914160;29;20065;-63
2022/04/09 05:20:24;;;;;;;5.13;1.33;;;;;;;;;;4940336;29;20036;-63
2022/04/09 05:22:53;;;;;;;4.95;1.70;;;;;;;;;;4930856;29;20067;-63
2022/04/09 05:25:19;;;;;;;4.03;1.50;;;;;;;;;;4921841;29;20127;-63
2022/04/09 05:27:48;;;;;;;6.75;1.45;;;;;;;;;;4914700;29;20036;-63
2022/04/09 05:30:24;;;;;;;4.43;1.25;;;;;;;;;;4915393;29;20429;-63
2022/04/09 05:32:52;;;;;;;4.80;1.58;;;;;;;;;;4914850;29;20032;-63
2022/04/09 05:35:18;;;;;;;9.10;1.40;;;;;;;;;;4916640;29;20028;-62
2022/04/09 05:37:50;;;;;;;4.30;1.58;;;;;;;;;;4915155;29;20067;-62
2022/04/09 05:40:20;;;;;;;2.28;1.13;;;;;;;;;;4930951;29;20032;-63
2022/04/09 05:42:46;;;;;;;9.35;1.63;;;;;;;;;;4931064;29;20029;-62
2022/04/09 05:45:15;;;;;;;12.30;3.72;;;;;;;;;;4930423;29;20064;-63
2022/04/09 05:47:45;;;;;;;4.45;1.23;;;;;;;;;;4898759;29;20052;-62
2022/04/09 05:50:15;;;;;;;3.17;1.10;;;;;;;;;;4931660;29;20048;-62
2022/04/09 05:52:43;;;;;;;7.45;1.40;;;;;;;;;;4914920;29;20083;-62
2022/04/09 05:55:11;;;;;;;4.18;1.10;;;;;;;;;;4929749;29;20488;-63
2022/04/09 05:57:39;;;;;;;2.28;1.33;;;;;;;;;;4915028;29;20084;-62
2022/04/09 06:00:09;;;;;;;7.93;1.60;;;;;;;;;;4930325;29;20040;-62
2022/04/09 06:02:41;;;;;;;3.55;1.67;;;;;;;;;;4925501;29;20040;-62
2022/04/09 06:05:16;;;;;;;3.38;1.38;;;;;;;;;;4915965;29;20503;-63
2022/04/09 06:07:46;;;;;;;9.15;2.67;;;;;;;;;;4901702;29;20457;-63
2022/04/09 06:10:14;;;;;;;7.00;2.17;;;;;;;;;;4900986;29;20044;-63
2022/04/09 06:12:41;;;;;;;4.80;1.52;;;;;;;;;;4917022;29;20043;-63
2022/04/09 06:15:14;;;;;;;4.38;1.50;;;;;;;;;;4932672;29;20032;-63
2022/04/09 06:17:46;;;;;;;4.97;1.40;;;;;;;;;;4902429;29;20035;-63
2022/04/09 06:20:12;;;;;;;5.57;1.67;;;;;;;;;;4918372;29;20047;-63
2022/04/09 06:22:41;;;;;;;3.40;1.67;;;;;;;;;;4931683;29;20043;-63
2022/04/09 06:25:08;;;;;;;4.15;1.55;;;;;;;;;;4930615;29;20027;-64
2022/04/09 06:27:41;;;;;;;7.40;1.70;;;;;;;;;;4916435;29;20036;-63
2022/04/09 06:30:10;;;;;;;5.57;1.90;;;;;;;;;;4918750;29;20555;-63
2022/04/09 06:32:39;;;;;;;7.38;2.35;;;;;;;;;;4916846;29;20028;-63
2022/04/09 06:35:06;;;;;;;10.68;2.65;;;;;;;;;;4932888;29;20028;-63
2022/04/09 06:37:32;;;;;;;6.55;2.78;;;;;;;;;;4903710;29;20024;-63
2022/04/09 06:39:59;;;;;;;7.88;3.00;;;;;;;;;;4920815;29;20038;-62
2022/04/09 06:42:27;;;;;;;9.98;3.60;;;;;;;;;;4931290;29;20500;-62
2022/04/09 06:45:17;;;;;;;8.95;3.40;;;;;;;;;;4927662;29;20039;-62
2022/04/09 06:48:02;;;;;;;10.65;3.55;;;;;;;;;;4912448;29;20063;-62
2022/04/09 06:50:32;;;;;;;8.02;2.97;;;;;;;;;;4899557;29;20440;-62
2022/04/09 06:52:58;;;;;;;7.00;3.00;;;;;;;;;;4933532;29;20024;-62
2022/04/09 06:55:29;;;;;;;7.97;3.28;;;;;;;;;;4929339;29;20043;-63
2022/04/09 06:58:00;;;;;;;5.55;2.70;;;;;;;;;;4900082;29;20036;-63
2022/04/09 07:00:32;;;;;;;6.57;3.22;;;;;;;;;;4931965;29;20039;-63
2022/04/09 07:03:00;;;;;;;14.82;3.92;;;;;;;;;;4917211;29;20200;-62
2022/04/09 07:05:26;;;;;;;10.63;3.38;;;;;;;;;;4917217;29;20365;-62
2022/04/09 07:07:53;;;;;;;8.90;4.28;;;;;;;;;;4918303;29;20024;-62
2022/04/09 07:10:19;;;;;;;11.95;4.30;;;;;;;;;;4918170;29;20167;-62
2022/04/09 07:12:45;;;;;;;8.48;3.85;;;;;;;;;;4921565;29;20094;-62
2022/04/09 07:15:11;;;;;;;8.63;3.35;;;;;;;;;;4927818;29;20031;-62
2022/04/09 07:17:38;;;;;;;9.63;3.80;;;;;;;;;;4917626;29;20031;-62
2022/04/09 07:20:05;;;;;;;9.77;3.88;;;;;;;;;;4917342;29;20075;-62
2022/04/09 07:22:33;;;;;;;6.72;3.65;;;;;;;;;;4917767;29;20173;-62
2022/04/09 07:24:59;;;;;;;12.63;4.13;;;;;;;;;;4925516;29;20760;-62
2022/04/09 07:27:38;;;;;;;8.68;4.68;;;;;;;;;;4933977;29;20031;-63
2022/04/09 07:30:08;;;;;;;8.57;4.10;;;;;;;;;;4917255;29;20038;-62
2022/04/09 07:32:35;;;;;;;7.63;3.97;;;;;;;;;;4917961;29;20036;-62
2022/04/09 07:35:01;;;;;;;13.25;3.83;;;;;;;;;;4918205;29;20024;-62
2022/04/09 07:37:27;;;;;;;9.82;1.95;;;;;;;;;;4918191;29;20040;-62
2022/04/09 07:39:54;;;;;;;8.27;1.80;;;;;;;;;;4925885;29;20121;-62
2022/04/09 07:42:21;;;;;;;5.03;1.40;;;;;;;;;;4936771;29;20130;-62
2022/04/09 07:44:47;;;;;;;6.47;1.70;;;;;;;;;;4937083;29;20035;-62
2022/04/09 07:47:13;;;;;;;7.28;1.95;;;;;;;;;;4917412;29;20034;-62
2022/04/09 07:49:39;;;;;;;6.82;1.65;;;;;;;;;;4915822;29;20036;-62
2022/04/09 07:52:06;;;;;;;7.75;1.63;;;;;;;;;;4919361;29;20044;-63
2022/04/09 07:54:32;;;;;;;10.15;1.60;;;;;;;;;;4917109;29;20024;-62
2022/04/09 07:56:58;;;;;;;8.68;1.40;;;;;;;;;;4921190;29;20032;-62
2022/04/09 07:59:24;;;;;;;6.68;1.40;;;;;;;;;;4927926;29;20399;-62
2022/04/09 08:01:50;;;;;;;4.32;1.58;;;;;;;;;;4921095;29;20032;-63
2022/04/09 08:04:16;;;;;;;4.97;1.42;;;;;;;;;;4917895;29;20481;-62
2022/04/09 08:06:43;;;;;;;13.50;1.63;;;;;;;;;;4933007;29;20538;-62
2022/04/09 08:09:09;;;;;;;10.55;1.38;;;;;;;;;;4936631;29;20066;-63
2022/04/09 08:11:35;;;;;;;5.10;1.45;;;;;;;;;;4918625;29;20032;-63
2022/04/09 08:14:01;;;;;;;12.30;2.35;;;;;;;;;;4929363;29;20034;-62
2022/04/09 08:16:27;;;;;;;4.53;1.52;;;;;;;;;;4934698;29;20116;-62
2022/04/09 08:18:53;;;;;;;10.00;2.08;;;;;;;;;;4916987;29;20144;-63
2022/04/09 08:21:19;;;;;;;10.85;1.67;;;;;;;;;;4931089;29;20071;-63
2022/04/09 08:23:47;;;;;;;8.48;1.83;;;;;;;;;;4936267;29;20134;-62
2022/04/09 08:26:13;;;;;;;4.45;1.50;;;;;;;;;;4921629;29;20373;-62
2022/04/09 08:28:40;;;;;;;7.53;1.80;;;;;;;;;;4916354;29;20040;-62
2022/04/09 08:31:07;;;;;;;7.65;1.60;;;;;;;;;;4921212;29;20082;-62
2022/04/09 08:33:34;;;;;;;8.40;1.95;;;;;;;;;;4918466;29;20511;-62
2022/04/09 08:36:02;;;;;;;6.10;1.65;;;;;;;;;;4924906;29;20050;-63
2022/04/09 08:38:30;;;;;;;7.22;1.58;;;;;;;;;;4920525;29;20133;-62
2022/04/09 08:40:56;;;;;;;6.85;1.70;;;;;;;;;;4916521;29;20035;-62
2022/04/09 08:43:22;;;;;;;5.78;1.85;;;;;;;;;;4916888;29;20135;-62
2022/04/09 08:45:49;;;;;;;4.50;1.33;;;;;;;;;;4915867;29;20525;-63
2022/04/09 08:48:16;;;;;;;7.40;1.77;;;;;;;;;;4916830;29;20028;-62
2022/04/09 08:50:44;;;;;;;4.65;1.55;;;;;;;;;;4930582;29;20039;-63
2022/04/09 08:53:10;;;;;;;6.78;1.48;;;;;;;;;;4913088;29;20024;-63
2022/04/09 08:55:37;;;;;;;7.43;1.90;;;;;;;;;;4927285;29;20138;-63
2022/04/09 08:58:04;;;;;;;8.75;1.83;;;;;;;;;;4921566;29;20080;-63
2022/04/09 09:00:30;;;;;;;3.45;1.55;;;;;;;;;;4918296;29;20066;-63
2022/04/09 09:02:58;;;;;;;5.82;1.27;;;;;;;;;;4918190;29;20114;-62
2022/04/09 09:05:45;;;;;;;4.47;1.42;;;;;;;;;;4919787;29;20086;-67
2022/04/09 09:08:12;;;;;;;7.38;1.80;;;;;;;;;;4910357;29;20036;-63
2022/04/09 09:10:38;;;;;;;7.53;1.48;;;;;;;;;;4915725;29;20075;-63
2022/04/09 09:13:05;;;;;;;7.07;1.50;;;;;;;;;;4913894;29;20040;-63
2022/04/09 09:15:52;;;;;;;9.05;1.60;;;;;;;;;;4918941;29;20024;-63
2022/04/09 09:18:20;;;;;;;11.38;2.30;;;;;;;;;;4915076;29;20071;-63
2022/04/09 09:20:50;;;;;;;8.05;1.58;;;;;;;;;;4914717;29;20461;-63
2022/04/09 09:23:23;;;;;;;2.65;0.98;;;;;;;;;;4909105;29;20067;-63
2022/04/09 09:25:53;;;;;;;3.55;1.10;;;;;;;;;;4909536;29;20496;-63
2022/04/09 09:28:24;;;;;;;4.90;1.40;;;;;;;;;;4907420;29;20109;-63
2022/04/09 09:30:50;;;;;;;4.65;1.42;;;;;;;;;;4907274;29;20135;-63
2022/04/09 09:33:17;;;;;;;7.78;1.30;;;;;;;;;;4908107;29;20034;-63
2022/04/09 09:35:56;;;;;;;5.00;1.50;;;;;;;;;;4906330;29;20385;-63
2022/04/09 09:38:31;;;;;;;3.85;1.50;;;;;;;;;;4898030;29;20439;-63
2022/04/09 09:40:57;;;;;;;4.95;1.13;;;;;;;;;;4895020;29;20374;-63
2022/04/09 09:43:24;;;;;;;3.83;1.13;;;;;;;;;;4904593;29;20033;-62
2022/04/09 09:45:51;;;;;;;9.73;1.65;;;;;;;;;;4901102;29;20043;-63
2022/04/09 09:48:19;;;;;;;6.22;1.98;;;;;;;;;;4906842;29;20036;-63
2022/04/09 09:50:46;;;;;;;5.70;1.45;;;;;;;;;;4894700;29;20056;-63
2022/04/09 09:53:12;;;;;;;4.70;1.30;;;;;;;;;;4896066;29;20032;-63
2022/04/09 09:55:43;;;;;;;6.20;1.25;;;;;;;;;;4895546;29;20473;-63
2022/04/09 09:58:10;;;;;;;6.20;2.08;;;;;;;;;;4898151;29;20067;-63
2022/04/09 10:00:38;;;;;;;6.50;1.40;;;;;;;;;;4896763;29;20029;-63
2022/04/09 10:03:05;;;;;;;9.27;1.48;;;;;;;;;;4895558;29;20036;-63
2022/04/09 10:05:31;;;;;;;8.18;1.63;;;;;;;;;;4895722;29;20119;-63
2022/04/09 10:07:57;;;;;;;5.28;2.03;;;;;;;;;;4896321;29;20040;-63
2022/04/09 10:10:26;;;;;;;3.80;1.42;;;;;;;;;;4894240;29;20120;-63
2022/04/09 10:12:54;;;;;;;4.00;1.00;;;;;;;;;;4896551;29;20036;-63
2022/04/09 10:15:20;;;;;;;5.80;1.48;;;;;;;;;;4911993;29;20034;-63
2022/04/09 10:17:47;;;;;;;7.60;1.77;;;;;;;;;;4906676;29;20455;-63
2022/04/09 10:20:13;;;;;;;8.00;1.42;;;;;;;;;;4901425;29;20024;-63
2022/04/09 10:22:40;;;;;;;6.80;1.35;;;;;;;;;;4914434;29;20059;-63
2022/04/09 10:25:07;;;;;;;6.10;1.17;;;;;;;;;;4917141;29;20032;-63
2022/04/09 10:27:44;;;;;;;6.20;1.40;;;;;;;;;;4922650;29;20055;-63
2022/04/09 10:30:14;;;;;;;8.68;1.50;;;;;;;;;;4923483;29;20175;-63
2022/04/09 10:32:44;;;;;;;2.95;1.15;;;;;;;;;;4916031;29;20036;-63
2022/04/09 10:35:23;;;;;;;2.72;1.10;;;;;;;;;;4913970;29;20032;-63
2022/04/09 10:38:10;;;;;;;6.63;1.58;;;;;;;;;;4913004;29;20044;-63
2022/04/09 10:40:42;;;;;;;5.18;1.85;;;;;;;;;;4910175;29;20036;-63
2022/04/09 10:43:09;;;;;;;5.65;1.50;;;;;;;;;;4915989;29;20098;-62
2022/04/09 10:45:54;;;;;;;6.30;2.42;;;;;;;;;;4916119;29;20047;-63
2022/04/09 10:48:29;;;;;;;2.35;1.17;;;;;;;;;;4914008;29;20488;-63
2022/04/09 10:50:57;;;;;;;5.15;1.35;;;;;;;;;;4912853;29;20050;-63
2022/04/09 10:53:25;;;;;;;6.32;1.50;;;;;;;;;;4918274;29;20310;-63
2022/04/09 10:56:14;;;;;;;8.32;1.73;;;;;;;;;;4919190;29;20053;-64
2022/04/09 10:58:59;;;;;;;8.30;1.70;;;;;;;;;;4917648;29;20060;-63
2022/04/09 11:01:47;;;;;;;7.47;1.40;;;;;;;;;;4921498;29;20035;-63
2022/04/09 11:07:16;;;;;;;4.45;1.55;;;;;;;;;;4917599;29;20028;-63
2022/04/09 11:09:50;;;;;;;6.85;1.52;;;;;;;;;;4918971;29;20028;-63
2022/04/09 11:12:19;;;;;;;7.15;1.40;;;;;;;;;;4918201;29;20044;-64
2022/04/09 11:14:55;;;;;;;7.63;1.48;;;;;;;;;;4921885;29;20028;-63
2022/04/09 11:17:26;;;;;;;3.28;1.38;;;;;;;;;;4931849;29;20024;-65
2022/04/09 11:19:52;;;;;;;5.78;1.60;;;;;;;;;;4916530;29;20068;-63
2022/04/09 11:22:18;;;;;;;3.45;1.48;;;;;;;;;;4912256;29;20052;-63
2022/04/09 11:24:44;;;;;;;3.83;1.13;;;;;;;;;;4901959;29;20079;-64
2022/04/09 11:27:10;;;;;;;3.72;1.50;;;;;;;;;;4900132;29;20072;-64
2022/04/09 11:29:37;;;;;;;4.88;1.52;;;;;;;;;;4899890;29;20378;-64
2022/04/09 11:32:04;;;;;;;7.22;1.27;;;;;;;;;;4900123;29;20082;-64
2022/04/09 11:34:48;;;;;;;5.65;2.28;;;;;;;;;;4899729;29;20025;-64
2022/04/09 11:37:15;;;;;;;5.53;1.33;;;;;;;;;;4900000;29;20453;-64
2022/04/09 11:39:41;;;;;;;10.82;2.75;;;;;;;;;;4917857;29;20369;-64
2022/04/09 11:42:08;;;;;;;6.47;1.50;;;;;;;;;;4907844;29;20111;-64
2022/04/09 11:44:41;;;;;;;3.92;1.08;;;;;;;;;;4898594;29;20063;-64
2022/04/09 11:47:17;;;;;;;5.38;1.70;;;;;;;;;;4900835;29;20028;-64
2022/04/09 11:49:44;;;;;;;4.07;1.38;;;;;;;;;;4899579;29;20458;-64
2022/04/09 11:52:11;;;;;;;5.43;1.70;;;;;;;;;;4911782;29;20028;-64
2022/04/09 11:54:43;;;;;;;5.78;1.27;;;;;;;;;;4907802;29;20055;-64
2022/04/09 11:57:12;;;;;;;4.40;1.10;;;;;;;;;;4906499;29;20392;-64
2022/04/09 11:59:39;;;;;;;4.85;1.50;;;;;;;;;;4904573;29;20065;-64
2022/04/09 12:02:16;;;;;;;5.32;1.50;;;;;;;;;;4906183;29;20040;-64
2022/04/09 12:04:42;;;;;;;8.00;1.73;;;;;;;;;;4898452;29;20037;-64
2022/04/09 12:07:08;;;;;;;8.80;1.90;;;;;;;;;;4901273;29;20032;-64
2022/04/09 12:09:36;;;;;;;6.78;1.45;;;;;;;;;;4908245;29;20032;-64
2022/04/09 12:12:02;;;;;;;5.68;1.45;;;;;;;;;;4918234;29;20039;-64
2022/04/09 12:14:28;;;;;;;4.95;1.33;;;;;;;;;;4909805;29;20039;-64
2022/04/09 12:16:55;;;;;;;2.85;1.45;;;;;;;;;;4911075;29;20476;-64
2022/04/09 12:19:32;;;;;;;8.75;1.75;;;;;;;;;;4911284;29;20032;-64
2022/04/09 12:22:19;;;;;;;2.75;1.20;;;;;;;;;;4912072;29;20059;-64
2022/04/09 12:24:46;;;;;;;5.30;1.95;;;;;;;;;;4936081;29;20499;-64
2022/04/09 12:27:12;;;;;;;3.13;1.15;;;;;;;;;;4929878;29;20032;-64
2022/04/09 12:29:46;;;;;;;1.63;1.10;;;;;;;;;;4917165;29;20032;-64
2022/04/09 12:32:14;;;;;;;12.95;1.67;;;;;;;;;;4915862;29;20432;-64
2022/04/09 12:34:52;;;;;;;5.40;0.95;;;;;;;;;;4916207;29;20024;-64
2022/04/09 12:56:15;;;;;;;3.92;1.40;;;;;;;;;;5113887;27;20391;-62
2022/04/09 12:58:42;;;;;;;5.95;1.77;;;;;;;;;;5089410;28;20028;-62
2022/04/09 13:01:08;;;;;;;5.28;1.40;;;;;;;;;;5088293;28;20024;-62
2022/04/09 13:03:35;;;;;;;5.47;1.17;;;;;;;;;;5088576;28;20100;-62
2022/04/09 13:06:02;;;;;;;5.53;1.38;;;;;;;;;;5088173;28;20392;-63
2022/04/09 13:08:28;;;;;;;5.55;1.20;;;;;;;;;;5088259;28;20016;-63
2022/04/09 13:10:54;;;;;;;6.57;1.25;;;;;;;;;;5091257;28;20055;-63
2022/04/09 13:13:23;;;;;;;5.38;1.40;;;;;;;;;;5089071;28;20032;-63
2022/04/09 13:15:50;;;;;;;2.95;1.30;;;;;;;;;;5085987;28;20039;-63
2022/04/09 13:18:16;;;;;;;5.15;1.55;;;;;;;;;;5088324;28;20012;-63
2022/04/09 13:20:46;;;;;;;3.45;1.20;;;;;;;;;;5088851;28;20497;-63
2022/04/09 13:23:12;;;;;;;3.55;1.10;;;;;;;;;;5092490;28;20072;-63
2022/04/09 13:25:42;;;;;;;5.22;1.05;;;;;;;;;;5093333;28;20031;-63
2022/04/09 13:28:11;;;;;;;6.13;1.30;;;;;;;;;;5089372;28;20461;-63
2022/04/09 13:30:37;;;;;;;3.55;1.33;;;;;;;;;;5088690;28;20059;-63
2022/04/09 13:33:03;;;;;;;3.35;1.10;;;;;;;;;;5088026;28;20028;-63
2022/04/09 13:35:30;;;;;;;4.35;1.30;;;;;;;;;;5089780;28;20019;-63
2022/04/09 13:37:56;;;;;;;3.45;0.98;;;;;;;;;;5087576;28;20119;-63
2022/04/09 13:40:22;;;;;;;3.33;1.10;;;;;;;;;;5088039;28;20025;-63
2022/04/09 13:42:48;;;;;;;4.75;1.27;;;;;;;;;;5089772;28;20081;-63
2022/04/09 13:45:15;;;;;;;7.72;1.33;;;;;;;;;;5087690;28;20416;-63
2022/04/09 13:47:41;;;;;;;5.03;1.30;;;;;;;;;;5068255;28;20481;-63
2022/04/09 13:50:08;;;;;;;4.90;1.00;;;;;;;;;;5064846;28;20021;-63
2022/04/09 13:52:34;;;;;;;4.05;1.30;;;;;;;;;;5069638;28;20039;-63
2022/04/09 13:55:00;;;;;;;6.60;1.55;;;;;;;;;;5065197;28;21513;-63
2022/04/09 13:57:28;;;;;;;2.75;1.10;;;;;;;;;;5049947;28;20037;-63
2022/04/09 13:59:54;;;;;;;0.98;0.88;;;;;;;;;;5053917;28;20064;-63
2022/04/09 14:02:20;;;;;;;2.75;1.08;;;;;;;;;;5056190;28;20045;-63
2022/04/09 14:04:46;;;;;;;3.10;0.90;;;;;;;;;;5053949;28;20044;-63
2022/04/09 14:07:13;;;;;;;4.85;1.15;;;;;;;;;;5052969;28;20120;-63
2022/04/09 14:09:39;;;;;;;2.30;0.82;;;;;;;;;;5055239;28;20102;-63
2022/04/09 14:12:05;;;;;;;2.70;1.08;;;;;;;;;;5051326;28;20032;-63
2022/04/09 14:14:31;;;;;;;6.65;1.30;;;;;;;;;;5051574;28;20482;-63
2022/04/09 14:16:58;;;;;;;10.15;2.97;;;;;;;;;;5057656;28;20083;-63
2022/04/09 14:19:25;;;;;;;3.58;1.20;;;;;;;;;;5057519;28;20396;-63
2022/04/09 14:21:51;;;;;;;6.47;1.27;;;;;;;;;;5056011;28;20027;-63
2022/04/09 14:24:17;;;;;;;4.35;1.30;;;;;;;;;;5053064;28;20065;-63
2022/04/09 14:26:43;;;;;;;7.63;1.30;;;;;;;;;;5053220;28;20085;-63
2022/04/09 16:35:32;;;;;;;6.60;1.10;;;;;;;;;;5107918;27;20445;-66
2022/04/09 16:37:58;;;;;;;1.90;1.00;;;;;;;;;;5104540;28;20024;-66
2022/04/09 16:40:24;;;;;;;3.83;1.10;;;;;;;;;;5111145;28;20040;-66
2022/04/09 16:42:51;;;;;;;5.60;1.63;;;;;;;;;;5117340;27;20020;-66
2022/04/09 16:45:17;;;;;;;4.82;1.30;;;;;;;;;;5109512;28;20090;-66
2022/04/09 16:47:44;;;;;;;6.00;1.25;;;;;;;;;;5108112;28;20016;-66
2022/04/09 16:50:10;;;;;;;6.00;2.10;;;;;;;;;;5108636;28;20488;-66
2022/04/09 16:52:36;;;;;;;3.03;1.10;;;;;;;;;;5102262;28;20065;-66
2022/04/09 16:55:02;;;;;;;2.67;1.17;;;;;;;;;;5106830;28;20025;-66
2022/04/09 16:57:28;;;;;;;4.32;1.23;;;;;;;;;;5103807;28;20024;-66
2022/04/09 16:59:55;;;;;;;7.15;1.35;;;;;;;;;;5106468;28;20024;-66
2022/04/09 17:02:21;;;;;;;4.80;1.38;;;;;;;;;;5101427;27;20032;-66
2022/04/09 17:04:47;;;;;;;3.58;1.27;;;;;;;;;;5099681;28;20032;-66
2022/04/09 17:07:13;;;;;;;5.43;1.73;;;;;;;;;;5104934;27;20050;-66
2022/04/09 17:09:39;;;;;;;4.90;1.38;;;;;;;;;;5105477;28;20453;-66
2022/04/09 17:12:06;;;;;;;5.13;1.45;;;;;;;;;;5106667;28;20039;-66
2022/04/09 17:14:32;;;;;;;3.53;1.33;;;;;;;;;;5105351;28;20057;-66